Time;durP1;ratioP1;P1;durP2;ratioP2;P2;SDS_P1;SDS_P2;PMS_P1;PMS_P2;Temp;Humidity;BMP_temperature;BMP_pressure;BME280_temperature;BME280_humidity;BME280_pressure;Samples;Min_cycle;Max_cycle;Signal;HPM_P1;HPM_P2
2022/06/02 00:01:51;;;;;;;7.03;4.05;;;8.70;99.90;;;;;;5005037;28;20036;-61
2022/06/02 00:04:29;;;;;;;9.45;4.30;;;8.70;99.90;;;;;;5000593;28;20027;-59
2022/06/02 00:07:03;;;;;;;5.25;4.25;;;8.60;99.90;;;;;;5005672;28;20066;-58
2022/06/02 00:09:42;;;;;;;;;;;8.60;99.90;;;;;;4997664;28;20033;-60
2022/06/02 00:12:29;;;;;;;4.07;3.45;;;8.60;99.90;;;;;;5005344;28;19914;-59
2022/06/02 00:15:13;;;;;;;7.47;4.32;;;8.50;99.90;;;;;;4995787;28;20019;-60
2022/06/02 00:17:45;;;;;;;;;;;8.40;99.90;;;;;;4998164;28;20030;-60
2022/06/02 00:20:32;;;;;;;7.30;4.75;;;8.40;99.90;;;;;;4996029;28;19913;-60
2022/06/02 00:23:41;;;;;;;6.13;5.18;;;8.30;99.90;;;;;;4996416;28;20037;-60
2022/06/02 00:26:41;;;;;;;9.75;5.20;;;8.30;99.90;;;;;;4993049;28;20491;-57
2022/06/02 00:29:24;;;;;;;12.13;6.28;;;8.30;99.90;;;;;;5006941;28;20379;-61
2022/06/02 00:32:13;;;;;;;8.55;5.28;;;8.30;99.90;;;;;;5000460;28;20026;-61
2022/06/02 00:34:52;;;;;;;9.68;5.78;;;8.30;99.90;;;;;;5002137;28;20036;-61
2022/06/02 00:37:30;;;;;;;8.05;5.90;;;8.30;99.90;;;;;;5004756;28;20038;-61
2022/06/02 00:39:57;;;;;;;7.82;5.70;;;8.30;99.90;;;;;;5000329;28;20034;-61
2022/06/02 00:42:26;;;;;;;7.18;3.90;;;8.30;99.90;;;;;;4999420;28;20037;-61
2022/06/02 00:44:57;;;;;;;6.78;4.80;;;8.30;99.90;;;;;;5005838;28;20025;-61
2022/06/02 00:47:29;;;;;;;10.77;4.32;;;8.20;99.90;;;;;;5005059;28;20030;-60
2022/06/02 00:50:00;;;;;;;7.00;4.60;;;8.10;99.90;;;;;;5001696;28;20030;-61
2022/06/02 00:52:57;;;;;;;6.30;4.38;;;8.10;99.90;;;;;;5006829;28;20044;-60
2022/06/02 00:58:44;;;;;;;5.63;4.38;;;8.00;99.90;;;;;;4999630;28;20084;-61
2022/06/02 01:01:14;;;;;;;4.90;4.32;;;7.90;99.90;;;;;;5000365;28;20034;-60
2022/06/02 01:03:47;;;;;;;5.78;4.43;;;7.90;99.90;;;;;;4999973;28;20132;-60
2022/06/02 01:06:12;;;;;;;4.85;4.35;;;7.90;99.90;;;;;;5002098;28;20122;-61
2022/06/02 01:09:04;;;;;;;7.30;5.30;;;7.80;99.90;;;;;;5003215;28;20049;-58
2022/06/02 01:12:00;;;;;;;7.43;5.00;;;7.80;99.90;;;;;;5006520;28;20030;-59
2022/06/02 01:14:30;;;;;;;7.63;4.97;;;7.80;99.90;;;;;;5001955;28;20472;-60
2022/06/02 01:17:38;;;;;;;5.90;4.38;;;7.70;99.90;;;;;;5004345;28;20041;-61
2022/06/02 01:20:13;;;;;;;11.68;5.85;;;7.70;99.90;;;;;;5004631;28;20034;-60
2022/06/02 01:23:01;;;;;;;6.70;5.07;;;7.70;99.90;;;;;;4996619;28;20073;-61
2022/06/02 01:25:48;;;;;;;9.05;5.55;;;7.70;99.90;;;;;;4996101;28;20393;-60
2022/06/02 01:28:39;;;;;;;10.30;6.18;;;7.60;99.90;;;;;;5004295;28;20036;-61
2022/06/02 01:31:08;;;;;;;8.65;6.13;;;7.60;99.90;;;;;;5002077;28;20069;-61
2022/06/02 01:33:59;;;;;;;7.72;5.97;;;7.60;99.90;;;;;;5005370;28;20097;-61
2022/06/02 01:36:39;;;;;;;7.57;5.25;;;7.60;99.90;;;;;;4998427;28;20558;-60
2022/06/02 01:39:29;;;;;;;9.15;5.35;;;7.50;99.90;;;;;;5004530;28;20033;-61
2022/06/02 01:42:30;;;;;;;7.93;5.65;;;7.50;99.90;;;;;;5004766;28;20021;-60
2022/06/02 01:45:22;;;;;;;9.07;5.50;;;7.50;99.90;;;;;;4998869;28;20117;-61
2022/06/02 01:48:11;;;;;;;7.10;5.22;;;7.40;99.90;;;;;;4994077;28;20042;-60
2022/06/02 01:51:00;;;;;;;10.93;6.13;;;7.40;99.90;;;;;;5006051;28;20038;-61
2022/06/02 01:53:43;;;;;;;8.05;5.88;;;7.40;99.90;;;;;;5001827;28;20037;-60
2022/06/02 01:56:26;;;;;;;6.47;5.45;;;7.40;99.90;;;;;;4995174;28;20510;-61
2022/06/02 01:59:44;;;;;;;8.87;6.33;;;7.30;99.90;;;;;;5002855;28;20479;-60
2022/06/02 02:02:21;;;;;;;9.07;6.40;;;7.30;99.90;;;;;;5006300;28;20064;-59
2022/06/02 02:05:23;;;;;;;8.63;6.82;;;7.30;99.90;;;;;;5008938;28;20034;-60
2022/06/02 02:08:13;;;;;;;8.32;6.85;;;7.20;99.90;;;;;;5002883;28;20050;-61
2022/06/02 02:10:53;;;;;;;8.52;6.70;;;7.20;99.90;;;;;;5009542;28;20052;-59
2022/06/02 02:13:23;;;;;;;9.48;6.90;;;7.20;99.90;;;;;;5006966;28;20040;-60
2022/06/02 02:16:17;;;;;;;12.05;6.80;;;7.10;99.90;;;;;;4999181;28;20420;-61
2022/06/02 02:18:50;;;;;;;8.45;7.10;;;7.10;99.90;;;;;;5001123;28;20424;-61
2022/06/02 02:21:22;;;;;;;10.33;7.63;;;7.10;99.90;;;;;;5008163;28;20143;-60
2022/06/02 02:24:01;;;;;;;12.93;6.72;;;7.10;99.90;;;;;;4991215;28;20095;-60
2022/06/02 02:26:40;;;;;;;9.70;6.93;;;7.00;99.90;;;;;;5005928;28;20097;-59
2022/06/02 02:29:44;;;;;;;13.07;8.48;;;7.10;99.90;;;;;;5004590;28;20033;-61
2022/06/02 02:32:20;;;;;;;11.75;7.13;;;7.00;99.90;;;;;;5007024;28;20028;-61
2022/06/02 02:35:25;;;;;;;11.20;7.75;;;7.00;99.90;;;;;;5001614;28;20073;-61
2022/06/02 02:37:57;;;;;;;10.13;7.53;;;7.00;99.90;;;;;;5003080;28;20040;-61
2022/06/02 02:40:41;;;;;;;14.48;8.68;;;7.00;99.90;;;;;;5005507;28;20038;-61
2022/06/02 02:43:29;;;;;;;12.52;8.95;;;7.00;99.90;;;;;;5002255;28;20042;-61
2022/06/02 02:46:20;;;;;;;10.50;7.80;;;7.00;99.90;;;;;;5002213;28;20403;-61
2022/06/02 02:49:04;;;;;;;11.25;7.22;;;7.00;99.90;;;;;;5003635;28;20057;-61
2022/06/02 02:51:37;;;;;;;;;;;7.00;99.90;;;;;;5009024;28;20026;-61
2022/06/02 02:54:29;;;;;;;12.68;7.20;;;6.90;99.90;;;;;;5000550;28;19917;-61
2022/06/02 02:57:04;;;;;;;8.30;6.40;;;6.90;99.90;;;;;;5002963;28;20076;-61
2022/06/02 02:59:51;;;;;;;8.65;6.45;;;6.90;99.90;;;;;;5000671;28;20449;-61
2022/06/02 03:02:23;;;;;;;10.00;5.78;;;6.80;99.90;;;;;;5007825;28;20103;-59
2022/06/02 03:05:14;;;;;;;9.68;6.30;;;6.70;99.90;;;;;;5000348;28;20037;-61
2022/06/02 03:07:40;;;;;;;9.40;6.18;;;6.70;99.90;;;;;;4998591;28;20499;-61
2022/06/02 03:10:20;;;;;;;8.30;5.50;;;6.70;99.90;;;;;;5003815;28;20033;-60
2022/06/02 03:13:23;;;;;;;7.60;5.50;;;6.60;99.90;;;;;;5006388;28;20026;-61
2022/06/02 03:15:58;;;;;;;11.02;4.88;;;6.60;99.90;;;;;;5002958;28;20057;-61
2022/06/02 03:18:34;;;;;;;6.85;5.28;;;6.60;99.90;;;;;;5000040;28;20361;-60
2022/06/02 03:21:26;;;;;;;6.68;4.93;;;6.50;99.90;;;;;;5007703;28;20021;-61
2022/06/02 03:24:06;;;;;;;6.28;5.22;;;6.50;99.90;;;;;;4994211;28;20050;-60
2022/06/02 03:26:56;;;;;;;7.93;5.38;;;6.50;99.90;;;;;;5008325;28;20038;-61
2022/06/02 03:30:05;;;;;;;8.35;5.72;;;6.50;99.90;;;;;;5007218;28;20636;-61
2022/06/02 03:32:49;;;;;;;8.18;5.63;;;6.50;99.90;;;;;;5009217;28;20120;-61
2022/06/02 03:35:40;;;;;;;12.02;5.72;;;6.50;99.90;;;;;;5000964;28;20105;-61
2022/06/02 03:38:23;;;;;;;8.15;5.90;;;6.40;99.90;;;;;;5004625;28;20037;-61
2022/06/02 03:41:12;;;;;;;11.23;6.88;;;6.50;99.90;;;;;;5006209;28;20029;-61
2022/06/02 03:44:04;;;;;;;9.05;6.18;;;6.50;99.90;;;;;;4994864;28;20053;-61
2022/06/02 03:46:51;;;;;;;14.27;7.80;;;6.50;99.90;;;;;;5007133;28;20506;-61
2022/06/02 03:49:19;;;;;;;12.18;7.43;;;6.60;99.90;;;;;;5006389;28;20026;-60
2022/06/02 03:52:21;;;;;;;9.10;6.63;;;6.60;99.90;;;;;;5004531;28;20055;-61
2022/06/02 03:55:24;;;;;;;10.90;7.40;;;6.60;99.90;;;;;;5007666;28;20029;-61
2022/06/02 03:58:01;;;;;;;9.50;6.15;;;6.60;99.90;;;;;;5009612;28;20026;-61
2022/06/02 04:00:35;;;;;;;8.73;6.28;;;6.70;99.90;;;;;;5000395;28;20032;-61
2022/06/02 04:03:06;;;;;;;8.40;7.05;;;6.70;99.90;;;;;;5001431;28;20034;-60
2022/06/02 04:06:06;;;;;;;7.90;6.32;;;6.80;99.90;;;;;;5005711;28;20133;-60
2022/06/02 04:08:40;;;;;;;12.20;6.18;;;6.90;99.90;;;;;;5001266;28;20033;-61
2022/06/02 04:14:58;;;;;;;8.02;6.03;;;7.00;99.90;;;;;;5003850;28;20089;-61
2022/06/02 04:17:48;;;;;;;9.07;6.45;;;7.20;99.90;;;;;;5002266;28;20018;-60
2022/06/02 04:20:47;;;;;;;12.57;6.70;;;7.20;99.90;;;;;;5003232;28;20026;-60
2022/06/02 04:23:50;;;;;;;8.38;6.15;;;7.30;99.90;;;;;;4995879;28;20101;-61
2022/06/02 04:26:51;;;;;;;7.40;5.28;;;7.40;99.90;;;;;;5002525;28;20101;-61
2022/06/02 04:29:50;;;;;;;7.40;5.40;;;7.50;99.90;;;;;;5006388;28;20143;-61
2022/06/02 04:32:41;;;;;;;10.07;5.28;;;7.70;99.90;;;;;;5008942;28;20048;-61
2022/06/02 04:35:16;;;;;;;8.82;4.30;;;8.60;99.90;;;;;;5007066;28;20064;-62
2022/06/02 04:38:09;;;;;;;6.22;4.60;;;10.10;99.90;;;;;;5003655;28;20113;-62
2022/06/02 04:41:05;;;;;;;5.03;3.97;;;11.40;99.90;;;;;;5003311;28;20084;-62
2022/06/02 04:43:39;;;;;;;7.95;4.65;;;12.50;99.90;;;;;;5001641;28;20092;-62
2022/06/02 04:46:36;;;;;;;5.68;3.72;;;13.60;99.90;;;;;;4993352;28;20030;-62
2022/06/02 04:49:14;;;;;;;7.63;4.60;;;14.30;99.90;;;;;;5003904;28;20173;-62
2022/06/02 04:52:02;;;;;;;6.50;3.92;;;14.70;98.30;;;;;;5005593;28;20029;-62
2022/06/02 04:54:43;;;;;;;5.45;4.07;;;14.70;97.20;;;;;;5002817;28;20061;-62
2022/06/02 04:57:15;;;;;;;5.57;3.65;;;15.40;96.70;;;;;;5006612;28;20045;-62
2022/06/02 04:59:52;;;;;;;7.22;4.20;;;16.40;94.30;;;;;;5003722;28;20053;-62
2022/06/02 05:02:32;;;;;;;5.47;4.10;;;16.90;92.70;;;;;;5000529;28;20109;-60
2022/06/02 05:05:23;;;;;;;5.10;3.45;;;18.00;90.10;;;;;;5003452;28;20080;-58
2022/06/02 05:08:00;;;;;;;4.85;3.50;;;18.70;86.40;;;;;;5006733;28;20034;-60
2022/06/02 05:10:42;;;;;;;7.78;4.22;;;19.10;83.30;;;;;;5004555;28;20030;-60
2022/06/02 05:13:18;;;;;;;4.72;3.90;;;19.40;81.80;;;;;;5003876;28;20034;-59
2022/06/02 05:16:11;;;;;;;5.88;4.05;;;18.80;82.40;;;;;;5004499;28;20030;-60
2022/06/02 05:18:58;;;;;;;3.25;2.65;;;18.80;82.80;;;;;;5000712;28;20026;-60
2022/06/02 05:21:49;;;;;;;4.82;3.67;;;19.60;79.60;;;;;;5007035;28;20110;-59
2022/06/02 05:24:53;;;;;;;8.30;4.03;;;19.80;77.10;;;;;;4987575;28;20050;-60
2022/06/02 05:27:39;;;;;;;4.78;3.50;;;20.30;76.90;;;;;;5009638;28;20452;-60
2022/06/02 05:30:39;;;;;;;9.82;4.15;;;20.40;76.10;;;;;;5001237;28;20030;-60
2022/06/02 05:33:26;;;;;;;4.07;3.65;;;20.00;75.10;;;;;;5003953;28;20112;-59
2022/06/02 05:36:14;;;;;;;4.68;3.80;;;19.90;75.60;;;;;;5011235;28;20026;-60
2022/06/02 05:39:13;;;;;;;3.78;3.35;;;20.40;76.40;;;;;;5012571;28;20033;-61
2022/06/02 05:41:49;;;;;;;4.60;3.90;;;21.70;73.50;;;;;;5008278;28;20033;-60
2022/06/02 05:44:30;;;;;;;4.88;3.63;;;21.30;71.30;;;;;;5000921;28;20033;-58
2022/06/02 05:47:27;;;;;;;5.15;3.22;;;21.20;70.80;;;;;;4999530;28;20105;-61
2022/06/02 05:50:12;;;;;;;6.88;3.10;;;22.40;69.50;;;;;;5007400;28;20061;-59
2022/06/02 05:53:16;;;;;;;6.82;3.40;;;22.60;69.30;;;;;;4996869;28;20109;-60
2022/06/02 05:56:32;;;;;;;5.60;4.10;;;23.50;66.20;;;;;;5007084;28;20026;-60
2022/06/02 05:59:03;;;;;;;5.43;3.28;;;24.00;63.80;;;;;;5008783;28;20034;-60
2022/06/02 06:01:49;;;;;;;5.18;4.30;;;24.80;62.80;;;;;;5004548;28;20038;-59
2022/06/02 06:04:30;;;;;;;3.70;3.20;;;24.50;62.40;;;;;;5009642;28;20030;-58
2022/06/02 06:07:12;;;;;;;4.60;3.50;;;23.60;64.00;;;;;;5011339;28;20033;-60
2022/06/02 06:09:59;;;;;;;5.35;3.50;;;24.00;62.50;;;;;;5007293;28;20025;-61
2022/06/02 06:12:55;;;;;;;5.43;3.85;;;23.20;64.70;;;;;;5011438;28;20018;-61
2022/06/02 06:16:07;;;;;;;5.75;4.50;;;22.90;65.90;;;;;;5008123;28;20022;-59
2022/06/02 06:18:48;;;;;;;6.40;4.43;;;22.70;64.50;;;;;;5010781;28;20033;-61
2022/06/02 06:21:43;;;;;;;7.72;5.72;;;23.20;64.50;;;;;;5007716;28;20113;-61
2022/06/02 06:24:40;;;;;;;7.03;4.80;;;22.90;64.40;;;;;;4985070;28;20030;-61
2022/06/02 06:27:11;;;;;;;6.20;4.55;;;22.90;66.00;;;;;;5010296;28;20040;-59
2022/06/02 06:29:46;;;;;;;7.03;4.72;;;23.70;65.00;;;;;;5007044;28;20036;-60
2022/06/02 06:32:33;;;;;;;7.78;4.93;;;23.70;64.20;;;;;;5012304;28;20026;-60
2022/06/02 06:35:18;;;;;;;7.50;5.18;;;23.40;63.60;;;;;;5004604;28;20104;-61
2022/06/02 06:37:43;;;;;;;9.73;6.32;;;23.10;65.10;;;;;;5008409;28;20026;-60
2022/06/02 06:41:01;;;;;;;8.30;6.50;;;22.80;64.70;;;;;;5009642;28;20026;-61
2022/06/02 06:43:32;;;;;;;13.30;7.35;;;23.00;64.90;;;;;;5007915;28;20515;-60
2022/06/02 06:46:14;;;;;;;13.98;8.30;;;24.00;63.90;;;;;;5005521;28;20030;-59
2022/06/02 06:48:58;;;;;;;13.15;8.75;;;24.60;62.60;;;;;;5001687;28;20368;-61
2022/06/02 06:52:02;;;;;;;9.02;8.13;;;23.80;62.70;;;;;;5002689;28;21213;-60
2022/06/02 06:54:46;;;;;;;13.40;6.97;;;23.60;63.40;;;;;;5006471;28;20026;-61
2022/06/02 06:57:20;;;;;;;9.32;7.63;;;25.00;63.40;;;;;;5006293;28;20046;-60
2022/06/02 06:59:48;;;;;;;12.40;9.73;;;24.90;62.40;;;;;;5001916;28;20030;-61
2022/06/02 07:02:33;;;;;;;11.05;9.18;;;24.30;62.80;;;;;;5010156;28;20094;-61
2022/06/02 07:05:12;;;;;;;19.08;12.13;;;25.00;62.30;;;;;;4999823;28;20026;-61
2022/06/02 07:07:51;;;;;;;17.95;12.88;;;24.90;60.60;;;;;;5000420;28;20033;-60
2022/06/02 07:10:27;;;;;;;16.25;13.18;;;24.40;61.80;;;;;;5001809;28;20405;-60
2022/06/02 07:13:06;;;;;;;26.10;11.45;;;25.00;61.90;;;;;;4999201;28;20097;-61
2022/06/02 07:15:41;;;;;;;11.23;9.07;;;25.90;62.70;;;;;;4999071;28;20029;-61
2022/06/02 07:18:23;;;;;;;14.38;10.25;;;26.90;60.70;;;;;;5002416;28;20069;-60
2022/06/02 07:21:11;;;;;;;13.30;11.07;;;28.20;58.60;;;;;;5004022;28;20034;-60
2022/06/02 07:23:56;;;;;;;18.92;14.65;;;28.20;57.50;;;;;;5008001;28;20029;-59
2022/06/02 07:26:40;;;;;;;15.57;12.93;;;28.60;56.90;;;;;;4983646;28;20070;-56
2022/06/02 07:29:23;;;;;;;12.38;10.20;;;28.40;56.00;;;;;;4997827;28;20018;-60
2022/06/02 07:32:16;;;;;;;16.23;11.25;;;28.40;56.50;;;;;;5003420;28;20018;-60
2022/06/02 07:35:32;;;;;;;14.57;12.48;;;28.60;55.60;;;;;;5002479;28;20479;-60
2022/06/02 07:38:00;;;;;;;12.60;9.77;;;28.50;55.50;;;;;;5003314;28;20026;-60
2022/06/02 07:40:40;;;;;;;13.23;11.88;;;28.80;55.60;;;;;;5006015;28;20064;-60
2022/06/02 07:43:26;;;;;;;15.70;11.45;;;27.30;56.40;;;;;;4998764;28;20069;-60
2022/06/02 07:46:03;;;;;;;13.70;12.25;;;26.90;57.00;;;;;;5004374;28;20061;-61
2022/06/02 07:49:04;;;;;;;13.02;10.18;;;27.40;56.60;;;;;;5002562;28;20036;-61
2022/06/02 07:51:56;;;;;;;11.57;9.88;;;27.60;55.70;;;;;;5005026;28;20034;-61
2022/06/02 07:55:01;;;;;;;15.98;11.70;;;29.20;54.90;;;;;;5000631;28;20475;-59
2022/06/02 07:58:29;;;;;;;9.30;8.10;;;27.60;54.70;;;;;;4998210;28;20113;-60
2022/06/02 08:01:23;;;;;;;10.55;8.75;;;27.90;56.00;;;;;;4950603;28;20460;-61
2022/06/02 08:04:03;;;;;;;11.02;8.90;;;28.60;55.00;;;;;;5000433;28;20033;-61
2022/06/02 08:06:50;;;;;;;9.75;8.25;;;30.00;54.10;;;;;;5006069;28;20037;-61
2022/06/02 08:09:54;;;;;;;8.05;7.25;;;29.20;52.70;;;;;;5001281;28;20031;-60
2022/06/02 08:12:21;;;;;;;8.50;7.50;;;29.70;50.70;;;;;;5004498;28;20448;-61
2022/06/02 08:14:59;;;;;;;8.90;6.60;;;29.00;52.30;;;;;;5003927;28;21554;-60
2022/06/02 08:17:36;;;;;;;9.88;6.82;;;30.10;51.40;;;;;;4999622;28;20193;-60
2022/06/02 08:20:54;;;;;;;8.60;7.28;;;29.40;51.60;;;;;;5004857;28;20405;-61
2022/06/02 08:23:25;;;;;;;8.82;7.22;;;28.10;53.40;;;;;;5000187;28;20050;-61
2022/06/02 08:25:57;;;;;;;9.40;6.72;;;27.90;51.80;;;;;;4991472;28;20030;-61
2022/06/02 08:28:58;;;;;;;7.80;5.97;;;27.20;53.40;;;;;;5007848;28;20079;-60
2022/06/02 08:31:42;;;;;;;7.15;5.43;;;27.70;52.70;;;;;;5004536;28;20033;-60
2022/06/02 08:34:14;;;;;;;7.20;5.70;;;28.80;50.70;;;;;;5010226;28;20030;-61
2022/06/02 08:37:00;;;;;;;7.50;4.78;;;28.60;49.40;;;;;;5006526;28;20044;-60
2022/06/02 08:39:56;;;;;;;7.30;6.03;;;28.20;51.20;;;;;;5008521;28;20033;-60
2022/06/02 08:42:47;;;;;;;8.25;7.07;;;29.20;49.50;;;;;;5007471;28;20068;-60
2022/06/02 08:45:40;;;;;;;8.30;5.75;;;27.40;51.10;;;;;;5002302;28;20045;-59
2022/06/02 08:48:21;;;;;;;7.05;6.07;;;27.70;52.10;;;;;;5008172;28;20030;-60
2022/06/02 08:51:12;;;;;;;6.20;5.60;;;27.00;52.00;;;;;;5005820;28;20034;-61
2022/06/02 08:54:07;;;;;;;8.68;5.00;;;26.80;51.40;;;;;;5006902;28;20029;-61
2022/06/02 08:56:52;;;;;;;6.75;5.65;;;28.10;53.00;;;;;;5002022;28;20068;-61
2022/06/02 08:59:49;;;;;;;6.38;5.43;;;27.70;51.80;;;;;;5002551;28;20377;-59
2022/06/02 09:02:52;;;;;;;6.47;5.25;;;26.70;52.60;;;;;;5000783;28;20062;-60
2022/06/02 09:05:34;;;;;;;8.48;5.30;;;25.90;54.20;;;;;;5000990;28;20038;-60
2022/06/02 09:08:30;;;;;;;6.55;5.88;;;25.40;54.40;;;;;;4996306;28;20495;-61
2022/06/02 09:11:10;;;;;;;6.43;4.68;;;25.70;54.50;;;;;;5002871;28;20037;-61
2022/06/02 09:13:47;;;;;;;6.22;5.20;;;25.80;52.60;;;;;;4998761;28;20064;-61
2022/06/02 09:16:22;;;;;;;5.68;4.55;;;26.60;51.50;;;;;;4997715;28;20030;-61
2022/06/02 09:19:02;;;;;;;8.50;4.57;;;27.20;50.80;;;;;;4997244;28;20022;-60
2022/06/02 09:21:33;;;;;;;5.57;4.45;;;28.70;48.10;;;;;;4999970;28;20472;-61
2022/06/02 09:24:31;;;;;;;7.38;4.57;;;28.50;47.60;;;;;;5003362;28;20088;-60
2022/06/02 09:27:31;;;;;;;6.72;4.68;;;28.30;50.80;;;;;;4987926;28;20488;-61
2022/06/02 09:30:15;;;;;;;5.05;4.30;;;28.30;48.70;;;;;;5006018;28;20026;-61
2022/06/02 09:33:33;;;;;;;6.32;4.22;;;27.10;51.40;;;;;;5000912;28;20040;-61
2022/06/02 09:36:19;;;;;;;6.43;4.53;;;28.10;51.20;;;;;;4996908;28;20080;-60
2022/06/02 09:38:54;;;;;;;6.28;4.85;;;29.00;48.60;;;;;;4993217;28;20142;-61
2022/06/02 09:41:39;;;;;;;4.18;3.67;;;28.90;47.80;;;;;;5000328;28;20038;-61
2022/06/02 09:44:30;;;;;;;5.20;3.15;;;28.00;50.60;;;;;;5005081;28;20041;-61
2022/06/02 09:47:05;;;;;;;3.90;2.83;;;28.80;49.20;;;;;;5003721;28;20025;-60
2022/06/02 09:50:07;;;;;;;3.40;3.10;;;29.60;48.70;;;;;;5004051;28;20100;-59
2022/06/02 09:52:44;;;;;;;6.55;4.07;;;30.10;46.00;;;;;;4999118;28;20364;-60
2022/06/02 09:55:28;;;;;;;4.40;3.08;;;28.60;45.70;;;;;;5000083;28;20036;-61
2022/06/02 09:58:31;;;;;;;5.75;3.67;;;27.80;48.00;;;;;;4999649;28;20030;-60
2022/06/02 10:01:13;;;;;;;9.50;3.80;;;28.00;49.30;;;;;;4998427;28;20037;-62
2022/06/02 10:03:59;;;;;;;5.63;3.73;;;28.40;48.60;;;;;;5003641;28;20041;-60
2022/06/02 10:07:11;;;;;;;5.03;4.50;;;27.80;48.00;;;;;;4995604;28;20034;-58
2022/06/02 10:10:01;;;;;;;8.02;4.20;;;26.60;49.60;;;;;;5005175;28;20129;-61
2022/06/02 10:12:55;;;;;;;4.95;3.67;;;26.20;51.70;;;;;;5004001;28;20415;-59
2022/06/02 10:15:23;;;;;;;4.88;3.90;;;25.60;51.40;;;;;;5001552;28;20622;-60
2022/06/02 10:17:57;;;;;;;5.82;3.88;;;24.70;52.10;;;;;;4994330;28;20044;-61
2022/06/02 10:21:00;;;;;;;4.40;4.00;;;24.70;52.10;;;;;;5003735;28;20033;-61
2022/06/02 10:24:03;;;;;;;5.95;3.97;;;24.90;53.20;;;;;;5009783;28;20637;-61
2022/06/02 10:26:53;;;;;;;6.78;4.82;;;24.00;53.10;;;;;;4987796;28;20111;-60
2022/06/02 10:29:43;;;;;;;8.73;4.43;;;23.50;54.90;;;;;;5007899;28;20025;-59
2022/06/02 10:32:28;;;;;;;5.70;4.60;;;23.20;54.80;;;;;;5008253;28;20411;-61
2022/06/02 10:35:08;;;;;;;8.50;4.47;;;23.00;55.00;;;;;;5003359;28;20068;-60
2022/06/02 10:37:54;;;;;;;4.93;4.03;;;23.10;54.30;;;;;;5012586;28;20083;-61
2022/06/02 10:40:23;;;;;;;4.78;3.50;;;23.40;54.50;;;;;;5007803;28;20033;-61
2022/06/02 10:43:03;;;;;;;5.45;4.72;;;23.70;54.40;;;;;;5011287;28;20084;-61
2022/06/02 10:45:59;;;;;;;6.18;4.25;;;23.60;53.00;;;;;;4999799;28;20388;-60
2022/06/02 10:48:39;;;;;;;6.90;4.38;;;23.40;54.30;;;;;;4998681;28;20077;-60
2022/06/02 10:51:29;;;;;;;5.55;3.35;;;23.00;54.80;;;;;;5005123;28;20018;-61
2022/06/02 10:54:37;;;;;;;5.93;3.80;;;23.30;56.90;;;;;;5006516;28;20026;-60
2022/06/02 10:57:21;;;;;;;8.45;4.00;;;23.70;54.70;;;;;;5004845;28;20045;-61
2022/06/02 11:00:05;;;;;;;5.22;3.70;;;23.20;55.00;;;;;;5011765;28;20510;-59
2022/06/02 11:02:43;;;;;;;5.25;3.97;;;22.20;55.20;;;;;;5012209;28;20121;-60
2022/06/02 11:05:31;;;;;;;5.20;3.55;;;21.50;57.30;;;;;;5000471;28;20120;-60
2022/06/02 11:08:34;;;;;;;6.07;3.72;;;21.40;57.10;;;;;;5004656;28;20113;-61
2022/06/02 11:11:20;;;;;;;5.22;3.38;;;21.60;56.80;;;;;;5006064;28;20061;-63
2022/06/02 11:14:03;;;;;;;5.60;3.58;;;21.30;57.50;;;;;;5001647;28;20025;-60
2022/06/02 11:16:42;;;;;;;4.00;3.40;;;21.10;57.80;;;;;;5008698;28;20036;-60
2022/06/02 11:19:38;;;;;;;5.70;3.25;;;20.80;58.10;;;;;;5005720;28;20376;-60
2022/06/02 11:22:09;;;;;;;4.63;3.08;;;20.90;59.30;;;;;;5001156;28;20030;-60
2022/06/02 11:24:51;;;;;;;6.53;3.38;;;21.40;57.20;;;;;;5005729;28;20034;-60
2022/06/02 11:27:51;;;;;;;7.35;3.75;;;21.70;58.10;;;;;;4979224;28;20041;-61
2022/06/02 11:30:31;;;;;;;4.13;3.35;;;21.70;58.00;;;;;;5003339;28;20018;-61
2022/06/02 11:33:18;;;;;;;4.47;2.78;;;21.70;57.50;;;;;;5005083;28;20022;-60
2022/06/02 11:36:10;;;;;;;3.80;3.17;;;21.50;58.10;;;;;;5002932;28;20052;-59
2022/06/02 11:39:05;;;;;;;4.05;3.10;;;21.20;59.30;;;;;;5011306;28;20100;-60
2022/06/02 11:41:38;;;;;;;4.40;2.75;;;21.40;59.30;;;;;;5003139;28;20040;-61
2022/06/02 11:44:25;;;;;;;6.93;3.22;;;21.30;59.20;;;;;;5011327;28;20061;-60
2022/06/02 11:47:24;;;;;;;5.22;3.45;;;21.10;59.70;;;;;;5002505;28;20066;-60
2022/06/02 11:50:08;;;;;;;5.10;2.90;;;21.40;60.90;;;;;;5005741;28;20048;-61
2022/06/02 11:52:58;;;;;;;4.25;2.95;;;21.60;59.20;;;;;;5011439;28;20527;-59
2022/06/02 11:55:57;;;;;;;3.22;2.85;;;21.80;56.90;;;;;;5009052;28;20395;-60
2022/06/02 11:58:49;;;;;;;3.05;2.75;;;21.50;58.10;;;;;;5007723;28;20021;-61
2022/06/02 12:01:47;;;;;;;2.95;2.47;;;21.60;59.00;;;;;;5004318;28;20033;-61
2022/06/02 12:04:46;;;;;;;2.92;2.50;;;21.80;59.00;;;;;;5002388;28;20030;-59
2022/06/02 12:07:31;;;;;;;3.92;2.25;;;21.10;57.70;;;;;;5003989;28;20439;-60
2022/06/02 12:10:15;;;;;;;3.50;2.58;;;21.00;58.20;;;;;;5007397;28;20034;-61
2022/06/02 12:12:56;;;;;;;3.10;2.45;;;21.30;57.30;;;;;;5003577;28;20022;-60
2022/06/02 12:15:57;;;;;;;5.32;2.88;;;21.20;57.60;;;;;;5002335;28;20033;-61
2022/06/02 12:19:04;;;;;;;4.82;3.38;;;21.20;58.90;;;;;;5005003;28;20030;-60
2022/06/02 12:21:48;;;;;;;2.70;1.92;;;20.90;59.40;;;;;;4999780;28;20491;-61
2022/06/02 12:24:49;;;;;;;3.55;2.53;;;21.20;60.80;;;;;;5010550;28;20084;-61
2022/06/02 12:27:52;;;;;;;5.60;2.63;;;21.50;59.00;;;;;;4994380;28;20050;-60
2022/06/02 12:30:28;;;;;;;5.65;2.75;;;21.50;58.10;;;;;;5000889;28;20028;-60
2022/06/02 12:33:14;;;;;;;4.97;3.38;;;21.60;58.70;;;;;;5003360;28;20058;-59
2022/06/02 12:36:04;;;;;;;4.20;2.70;;;21.90;56.80;;;;;;5003443;28;20387;-59
2022/06/02 12:38:40;;;;;;;4.25;2.30;;;21.90;58.50;;;;;;5000426;28;20042;-60
2022/06/02 12:41:38;;;;;;;4.22;2.10;;;22.30;57.80;;;;;;4999059;28;20030;-60
2022/06/02 12:44:23;;;;;;;5.18;2.00;;;22.70;57.00;;;;;;5001374;28;20096;-61
2022/06/02 12:47:26;;;;;;;3.83;1.70;;;23.10;56.30;;;;;;5000386;28;20026;-60
2022/06/02 12:50:01;;;;;;;3.75;2.25;;;23.60;56.90;;;;;;5003043;28;20117;-61
2022/06/02 12:52:45;;;;;;;4.50;2.40;;;23.50;55.50;;;;;;5005327;28;20038;-60
2022/06/02 12:55:32;;;;;;;3.25;2.30;;;23.20;55.50;;;;;;4995731;28;20026;-61
2022/06/02 12:57:58;;;;;;;5.35;2.25;;;23.00;55.90;;;;;;5002071;28;20026;-59
2022/06/02 13:00:47;;;;;;;2.55;1.80;;;22.60;55.10;;;;;;5000535;28;20037;-59
2022/06/02 13:03:51;;;;;;;2.33;2.13;;;22.20;57.80;;;;;;5005553;28;20042;-60
2022/06/02 13:06:46;;;;;;;5.85;2.13;;;22.00;57.60;;;;;;5003386;28;20036;-60
2022/06/02 13:09:38;;;;;;;2.53;2.30;;;21.70;58.00;;;;;;5001515;28;20289;-60
2022/06/02 13:12:37;;;;;;;3.90;2.25;;;21.70;57.90;;;;;;4999907;28;20783;-60
2022/06/02 13:15:31;;;;;;;3.58;3.13;;;21.50;58.40;;;;;;5000949;28;20026;-59
2022/06/02 13:18:00;;;;;;;9.07;2.53;;;21.40;57.50;;;;;;4997320;28;20031;-60
2022/06/02 13:20:35;;;;;;;2.53;2.28;;;21.40;57.50;;;;;;5007067;28;20022;-59
2022/06/02 13:23:18;;;;;;;3.10;1.92;;;21.50;59.40;;;;;;5009362;28;20080;-59
2022/06/02 13:26:05;;;;;;;1.83;1.50;;;21.50;58.50;;;;;;4976298;28;20034;-61
2022/06/02 13:28:36;;;;;;;2.88;2.05;;;21.50;59.90;;;;;;5008832;28;20034;-60
2022/06/02 13:31:06;;;;;;;2.40;2.08;;;21.30;59.40;;;;;;4999272;28;20039;-60
2022/06/02 13:33:40;;;;;;;2.83;2.53;;;21.30;61.00;;;;;;5005997;28;20060;-58
2022/06/02 13:36:26;;;;;;;2.30;2.10;;;21.30;58.40;;;;;;5008330;28;20506;-59
2022/06/02 13:39:21;;;;;;;2.63;1.88;;;21.20;58.50;;;;;;4997306;28;20044;-59
2022/06/02 13:41:59;;;;;;;2.05;1.60;;;21.50;60.30;;;;;;5000309;28;20470;-59
2022/06/02 13:44:42;;;;;;;3.08;1.70;;;21.60;59.50;;;;;;5006515;28;20084;-60
2022/06/02 13:47:23;;;;;;;;;;;21.90;61.20;;;;;;5003932;28;20045;-59
2022/06/02 13:50:21;;;;;;;2.70;1.90;;;22.00;59.50;;;;;;5006083;28;19909;-59
2022/06/02 13:53:26;;;;;;;4.05;1.85;;;22.00;58.40;;;;;;5004238;28;20041;-62
2022/06/02 13:59:15;;;;;;;1.80;1.60;;;22.00;58.40;;;;;;5005373;28;20037;-60
2022/06/02 14:01:55;;;;;;;2.80;2.30;;;22.20;58.80;;;;;;5011330;28;20056;-62
2022/06/02 14:04:37;;;;;;;3.03;2.10;;;21.60;56.50;;;;;;5009400;28;20489;-62
2022/06/02 14:07:19;;;;;;;2.88;1.85;;;21.70;57.20;;;;;;5002554;28;20126;-61
2022/06/02 14:10:18;;;;;;;3.00;1.95;;;21.70;58.70;;;;;;5005792;28;20053;-62
2022/06/02 14:12:56;;;;;;;3.03;1.83;;;21.50;57.70;;;;;;5008854;28;20508;-60
2022/06/02 14:15:47;;;;;;;2.05;1.83;;;21.30;60.60;;;;;;5008585;28;20037;-61
2022/06/02 14:18:53;;;;;;;3.13;1.60;;;21.40;62.10;;;;;;5011032;28;20034;-62
2022/06/02 14:21:53;;;;;;;3.67;1.98;;;21.20;58.40;;;;;;5003929;28;20610;-61
2022/06/02 14:24:24;;;;;;;1.65;1.45;;;21.10;60.20;;;;;;5005348;28;20177;-61
2022/06/02 14:27:17;;;;;;;2.17;1.63;;;21.10;58.40;;;;;;4992591;28;20053;-61
2022/06/02 14:30:13;;;;;;;4.18;1.40;;;21.00;58.10;;;;;;4999109;28;20069;-62
2022/06/02 14:32:58;;;;;;;4.22;1.77;;;20.80;58.20;;;;;;5010142;28;20038;-59
2022/06/02 14:35:32;;;;;;;6.88;1.70;;;20.80;58.30;;;;;;4998989;28;20026;-62
2022/06/02 14:38:25;;;;;;;3.83;1.38;;;20.80;59.00;;;;;;5007402;28;20064;-62